createdAt,value
2022-12-19T00:02:47.546Z,1.4280936454849498
2022-12-19T00:16:18.870Z,1.1237458193979932
2022-12-19T00:22:39.766Z,1.9297658862876255
2022-12-19T00:29:00.941Z,1.3110367892976589
2022-12-19T00:35:22.644Z,1.6789297658862876
2022-12-19T00:45:46.832Z,1.6521739130434783
2022-12-19T00:52:09.287Z,1.5250836120401339
2022-12-19T00:58:30.009Z,1.434782608695652
2022-12-19T01:05:42.743Z,1.434782608695652
2022-12-19T01:12:07.492Z,2.157190635451505
2022-12-19T01:18:29.661Z,1.37123745819398
2022-12-19T01:26:33.885Z,2.160535117056856
2022-12-19T01:44:18.440Z,1.4448160535117056
2022-12-19T01:50:39.594Z,1.4381270903010033
2022-12-19T01:57:05.793Z,1.3177257525083612
2022-12-19T02:03:27.823Z,1.625418060200669
2022-12-19T02:09:50.348Z,2.0234113712374584
2022-12-19T02:16:18.795Z,1.9832775919732442
2022-12-19T02:22:41.836Z,2.4347826086956523
2022-12-19T02:28:59.972Z,1.7023411371237458
2022-12-19T02:35:20.721Z,1.8963210702341138
2022-12-19T02:41:41.293Z,1.7391304347826086
2022-12-19T02:48:04.525Z,1.8963210702341138
2022-12-19T02:54:29.135Z,1.491638795986622
2022-12-19T03:00:48.912Z,1.8327759197324414
2022-12-19T03:08:41.051Z,1.7290969899665551
2022-12-19T03:15:02.867Z,1.6153846153846154
2022-12-19T03:31:54.778Z,2.0267558528428093
2022-12-19T03:38:16.444Z,1.7625418060200668
2022-12-19T03:47:49.008Z,1.785953177257525
2022-12-19T04:01:26.084Z,1.899665551839465
2022-12-19T04:07:46.296Z,1.3043478260869565
2022-12-19T04:14:06.555Z,1.2240802675585285
2022-12-19T04:24:03.969Z,1.6688963210702341
2022-12-19T04:30:23.845Z,1.9732441471571907
2022-12-19T04:36:45.836Z,2.120401337792642
2022-12-19T04:48:43.937Z,1.7959866220735785
2022-12-19T04:55:04.034Z,1.8227424749163879
2022-12-19T05:01:23.645Z,1.8494983277591974
2022-12-19T05:07:45.075Z,1.3779264214046822
2022-12-19T05:16:00.709Z,1.7123745819397993
2022-12-19T05:27:38.298Z,0.9498327759197325
2022-12-19T05:37:25.130Z,1.5551839464882944
2022-12-19T05:44:22.458Z,0.9498327759197325
2022-12-19T05:50:43.327Z,1.979933110367893
2022-12-19T05:57:27.065Z,1.4180602006688963
2022-12-19T06:12:01.893Z,2.020066889632107
2022-12-19T06:35:03.637Z,2.5016722408026757
2022-12-19T06:41:23.615Z,1.919732441471572
2022-12-19T06:48:32.107Z,1.548494983277592
2022-12-19T07:02:23.198Z,1.839464882943144
2022-12-19T07:08:42.782Z,1.939799331103679
2022-12-19T07:15:02.999Z,2.060200668896321
2022-12-19T07:21:22.125Z,1.7926421404682273
2022-12-19T07:27:40.500Z,1.806020066889632
2022-12-19T07:33:59.664Z,1.3444816053511706
2022-12-19T07:40:19.390Z,1.6688963210702341
2022-12-19T07:46:38.229Z,1.839464882943144
2022-12-19T07:56:07.353Z,2.234113712374582
2022-12-19T08:07:19.194Z,1.2642140468227425
2022-12-19T08:15:44.834Z,1.4247491638795986
2022-12-19T08:22:03.784Z,2.040133779264214
2022-12-19T08:28:24.885Z,2.0735785953177257
2022-12-19T08:37:43.334Z,1.5183946488294315
2022-12-19T08:44:04.920Z,1.8461538461538463
2022-12-19T08:50:26.291Z,1.9464882943143813
2022-12-19T09:09:00.691Z,1.9096989966555185
2022-12-19T09:15:21.865Z,1.6722408026755853
2022-12-19T09:21:42.644Z,1.6020066889632107
2022-12-19T09:28:27.445Z,2.1638795986622075
2022-12-19T09:34:54.086Z,1.548494983277592
2022-12-19T09:41:15.322Z,1.9331103678929766
2022-12-19T09:53:41.491Z,1.5752508361204014
2022-12-19T10:12:46.143Z,1.3678929765886287
2022-12-19T10:27:59.227Z,1.585284280936455
2022-12-19T10:34:21.207Z,1.0167224080267558
2022-12-19T10:40:42.293Z,0.3411371237458194
2022-12-19T10:47:04.494Z,0.41471571906354515
2022-12-19T10:54:33.058Z,0.6153846153846154
2022-12-19T11:00:54.660Z,0.7692307692307693
2022-12-19T11:07:16.163Z,0.9698996655518395
2022-12-19T11:19:37.078Z,0.4280936454849498
2022-12-19T11:35:52.018Z,0.49498327759197325
2022-12-19T11:42:13.424Z,0.3879598662207358
2022-12-19T11:48:36.220Z,0.8963210702341137
2022-12-19T11:54:59.077Z,0.6153846153846154
2022-12-19T12:01:22.556Z,0.5351170568561873
2022-12-19T12:08:56.014Z,0.8294314381270903
2022-12-19T12:29:47.074Z,0.3076923076923077
2022-12-19T12:38:23.390Z,0.5585284280936454
2022-12-19T12:44:47.987Z,0.6956521739130435
2022-12-19T12:51:10.318Z,0.6822742474916388
2022-12-19T12:57:33.107Z,0.6889632107023411
2022-12-19T13:08:48.661Z,0.7892976588628763
2022-12-19T13:17:41.054Z,0.919732441471572
2022-12-19T13:24:04.064Z,0.8160535117056856
2022-12-19T13:30:26.440Z,0.6889632107023411
2022-12-19T13:39:51.353Z,0.8595317725752508
2022-12-19T13:46:31.318Z,0.6555183946488294
2022-12-19T14:15:12.357Z,1.354515050167224
2022-12-19T14:22:09.800Z,0.8795986622073578
2022-12-19T14:28:36.570Z,0.6688963210702341
2022-12-19T14:36:08.557Z,0.7324414715719063
2022-12-19T14:43:57.551Z,0.5551839464882943
2022-12-19T14:54:29.349Z,0.6488294314381271
2022-12-19T15:05:56.797Z,1.1103678929765886
2022-12-19T15:14:04.097Z,0.6822742474916388
2022-12-19T15:21:17.035Z,0.9698996655518395
2022-12-19T15:28:59.656Z,0.5217391304347826
2022-12-19T15:41:45.038Z,0.45819397993311034
2022-12-19T15:48:05.703Z,0.9698996655518395
2022-12-19T15:59:12.187Z,0.6722408026755853
2022-12-19T16:11:05.900Z,0.6287625418060201
2022-12-19T16:17:47.241Z,0.31438127090301005
2022-12-19T16:30:00.105Z,0.7892976588628763
2022-12-19T16:36:21.791Z,0.7658862876254181
2022-12-19T16:42:41.684Z,0.5150501672240803
2022-12-19T16:59:42.076Z,0.9966555183946488
2022-12-19T17:11:10.879Z,0.5886287625418061
2022-12-19T17:18:26.606Z,0.8160535117056856
2022-12-19T17:24:51.380Z,0.8762541806020067
2022-12-19T17:31:14.510Z,0.7023411371237458
2022-12-19T17:37:37.162Z,0.8963210702341137
2022-12-19T17:43:59.020Z,1.1036789297658862
2022-12-19T17:54:15.945Z,0.7892976588628763
2022-12-19T18:03:10.948Z,0.49498327759197325
2022-12-19T18:11:09.723Z,0.842809364548495
2022-12-19T18:17:30.356Z,0.5284280936454849
2022-12-19T18:23:49.399Z,0.5886287625418061
2022-12-19T18:30:08.484Z,0.5953177257525084
2022-12-19T18:40:15.890Z,0.8361204013377926
2022-12-19T18:46:46.724Z,0.9498327759197325
2022-12-19T18:53:12.022Z,0.9230769230769231
2022-12-19T19:05:47.166Z,0.6555183946488294
2022-12-19T19:12:07.870Z,0.38127090301003347
2022-12-19T19:18:28.426Z,0.5150501672240803
2022-12-19T19:24:50.108Z,0.6086956521739131
2022-12-19T19:31:12.318Z,0.782608695652174
2022-12-19T19:40:17.100Z,0.7023411371237458
2022-12-19T19:50:10.025Z,0.5819397993311036
2022-12-19T20:00:36.252Z,0.8093645484949833
2022-12-19T20:06:57.744Z,0.6421404682274248
2022-12-19T20:13:22.285Z,0.7892976588628763
2022-12-19T20:19:48.032Z,0.6120401337792643
2022-12-19T20:26:11.203Z,0.7525083612040134
2022-12-19T20:32:35.979Z,0.9765886287625418
2022-12-19T20:39:01.411Z,0.27424749163879597
2022-12-19T20:45:23.950Z,0.782608695652174
2022-12-19T20:59:19.367Z,0.7357859531772575
2022-12-19T21:10:57.270Z,0.5418060200668896
2022-12-19T21:17:18.305Z,0.6822742474916388
2022-12-19T21:23:38.613Z,0.31438127090301005
2022-12-19T21:30:01.624Z,0.43478260869565216
2022-12-19T21:36:21.594Z,0.38127090301003347
2022-12-19T21:42:59.695Z,0.5953177257525084
2022-12-19T21:49:21.378Z,0.7959866220735786
2022-12-19T21:58:19.564Z,0.41471571906354515
2022-12-19T22:04:48.249Z,0.33444816053511706
2022-12-19T22:11:21.119Z,1.1505016722408026
2022-12-19T22:17:48.677Z,0.5351170568561873
2022-12-19T22:24:11.832Z,0.822742474916388
2022-12-19T22:30:41.075Z,0.43478260869565216
2022-12-19T22:37:06.894Z,0.45484949832775917
2022-12-19T22:43:33.021Z,0.5852842809364549
2022-12-19T22:57:23.935Z,0.6755852842809364
2022-12-19T23:04:56.568Z,0.22073578595317725
2022-12-19T23:14:30.250Z,0.8963210702341137
2022-12-19T23:20:49.556Z,0.47491638795986624
2022-12-19T23:29:42.790Z,0.6187290969899666
2022-12-19T23:36:02.922Z,0.3076923076923077
2022-12-19T23:42:38.124Z,1.0535117056856187
2022-12-19T23:48:57.795Z,0.7324414715719063
2022-12-19T23:55:16.935Z,0.5618729096989966
